Time;durP1;ratioP1;P1;durP2;ratioP2;P2;SDS_P1;SDS_P2;PMS_P1;PMS_P2;Temp;Humidity;BMP_temperature;BMP_pressure;BME280_temperature;BME280_humidity;BME280_pressure;Samples;Min_cycle;Max_cycle;Signal;HPM_P1;HPM_P2
2023/11/24 00:01:47;;;;;;;;;;;6.40;99.90;;;;;;21171930;28;19919;-85
2023/11/24 00:11:48;;;;;;;;;;;6.40;99.90;;;;;;21149735;27;20008;-86
2023/11/24 00:21:49;;;;;;;;;;;6.50;99.90;;;;;;21121445;27;20367;-85
2023/11/24 00:31:50;;;;;;;;;;;6.50;99.90;;;;;;21147112;27;19922;-86
2023/11/24 00:41:51;;;;;;;;;;;6.50;99.90;;;;;;21179660;27;19995;-88
2023/11/24 00:51:51;;;;;;;;;;;6.60;99.90;;;;;;21157256;27;20524;-88
2023/11/24 01:01:52;;;;;;;;;;;6.70;99.90;;;;;;21141079;27;19919;-90
2023/11/24 01:11:53;;;;;;;;;;;6.70;99.90;;;;;;21127098;28;20104;-89
2023/11/24 01:21:54;;;;;;;;;;;6.70;99.90;;;;;;21136661;27;19955;-89
2023/11/24 01:31:55;;;;;;;;;;;6.70;99.90;;;;;;21164513;27;19916;-89
2023/11/24 01:41:56;;;;;;;;;;;6.60;99.90;;;;;;21138171;27;19960;-88
2023/11/24 01:51:57;;;;;;;;;;;6.70;99.90;;;;;;21154609;27;20378;-89
2023/11/24 02:01:59;;;;;;;;;;;6.80;99.90;;;;;;21144382;27;19912;-90
2023/11/24 02:12:00;;;;;;;;;;;6.80;99.90;;;;;;21179688;27;19920;-89
2023/11/24 02:22:00;;;;;;;;;;;6.80;99.90;;;;;;21154576;27;19962;-89
2023/11/24 02:32:01;;;;;;;;;;;6.90;99.90;;;;;;21135025;27;20369;-89
2023/11/24 02:42:02;;;;;;;;;;;6.90;99.90;;;;;;21126672;27;19922;-90
2023/11/24 02:52:03;;;;;;;;;;;6.90;99.90;;;;;;21129017;27;19954;-90
2023/11/24 03:02:03;;;;;;;;;;;6.80;99.90;;;;;;21122134;27;19938;-88
2023/11/24 03:12:04;;;;;;;;;;;6.70;99.90;;;;;;21154562;27;19922;-88
2023/11/24 03:22:05;;;;;;;;;;;6.60;99.90;;;;;;21146297;27;19923;-87
2023/11/24 03:32:06;;;;;;;;;;;6.50;99.90;;;;;;21122379;28;20360;-89
2023/11/24 03:42:08;;;;;;;;;;;6.60;99.90;;;;;;21138959;28;19916;-89
2023/11/24 03:52:08;;;;;;;;;;;6.60;99.90;;;;;;21137561;28;19952;-89
2023/11/24 04:02:09;;;;;;;;;;;6.70;99.90;;;;;;21118269;28;19919;-89
2023/11/24 04:12:10;;;;;;;;;;;6.60;99.90;;;;;;21130373;28;19919;-89
2023/11/24 04:22:10;;;;;;;;;;;6.40;99.90;;;;;;21127276;28;19919;-88
2023/11/24 04:32:11;;;;;;;;;;;6.30;99.90;;;;;;21126363;28;19969;-87
2023/11/24 04:42:12;;;;;;;;;;;6.20;99.90;;;;;;21148213;28;19923;-88
2023/11/24 04:52:13;;;;;;;;;;;6.20;99.90;;;;;;21151325;27;19923;-89
2023/11/24 05:02:13;;;;;;;;;;;6.20;99.90;;;;;;21130023;28;20307;-88
2023/11/24 05:12:14;;;;;;;;;;;6.20;99.90;;;;;;21136030;27;19923;-88
2023/11/24 05:22:15;;;;;;;;;;;6.20;99.90;;;;;;21169886;27;19957;-88
2023/11/24 05:32:16;;;;;;;;;;;6.20;99.90;;;;;;21162019;27;19916;-89
2023/11/24 05:42:17;;;;;;;;;;;6.20;99.90;;;;;;21154156;27;19930;-88
2023/11/24 05:52:20;;;;;;;;;;;6.20;99.90;;;;;;21161703;27;21645;-88
2023/11/24 06:02:21;;;;;;;;;;;6.20;99.90;;;;;;21148035;27;19912;-87
2023/11/24 06:12:22;;;;;;;;;;;6.20;99.90;;;;;;21171120;27;20013;-86
2023/11/24 06:22:23;;;;;;;;;;;6.30;99.90;;;;;;21194018;27;19985;-86
2023/11/24 06:32:23;;;;;;;;;;;6.30;99.90;;;;;;21132252;28;19970;-86
2023/11/24 06:42:24;;;;;;;;;;;6.30;99.90;;;;;;21133669;27;20006;-87
2023/11/24 06:52:25;;;;;;;;;;;6.30;99.90;;;;;;21147055;27;19923;-87
2023/11/24 07:02:25;;;;;;;;;;;6.40;99.90;;;;;;21143963;27;20290;-86
2023/11/24 07:12:26;;;;;;;;;;;6.40;99.90;;;;;;21131801;27;19938;-86
2023/11/24 07:22:27;;;;;;;;;;;6.40;99.90;;;;;;21138366;27;19961;-85
2023/11/24 07:32:29;;;;;;;;;;;6.50;99.90;;;;;;21150746;27;19938;-85
2023/11/24 07:42:30;;;;;;;;;;;6.50;99.90;;;;;;21136478;27;19915;-85
2023/11/24 07:52:31;;;;;;;;;;;6.60;99.90;;;;;;21106273;28;19979;-85
2023/11/24 08:02:31;;;;;;;;;;;6.60;99.90;;;;;;21140749;28;19919;-86
2023/11/24 08:12:32;;;;;;;;;;;6.90;99.90;;;;;;21181106;28;20057;-86
2023/11/24 08:22:33;;;;;;;;;;;7.20;99.90;;;;;;21161645;27;19966;-85
2023/11/24 08:32:33;;;;;;;;;;;7.20;99.90;;;;;;21155293;27;19951;-85
2023/11/24 08:42:34;;;;;;;;;;;7.30;99.90;;;;;;21177477;27;20615;-85
2023/11/24 08:52:35;;;;;;;;;;;7.40;99.90;;;;;;21176546;27;20355;-83
2023/11/24 09:02:35;;;;;;;;;;;7.60;99.90;;;;;;21169933;27;20511;-83
2023/11/24 09:12:36;;;;;;;;;;;7.60;99.90;;;;;;21135239;28;20436;-83
2023/11/24 09:22:37;;;;;;;;;;;7.70;99.90;;;;;;21117322;27;19912;-84
2023/11/24 09:32:41;;;;;;;;;;;7.80;99.90;;;;;;21157327;27;19919;-84
2023/11/24 09:42:43;;;;;;;;;;;7.80;99.90;;;;;;21158038;27;19983;-85
2023/11/24 09:52:46;;;;;;;;;;;7.80;99.90;;;;;;21148775;27;20033;-84
2023/11/24 10:02:47;;;;;;;;;;;7.80;99.90;;;;;;21157068;27;20382;-85
2023/11/24 10:12:50;;;;;;;;;;;7.90;99.90;;;;;;21135581;27;20516;-85
2023/11/24 10:22:52;;;;;;;;;;;8.20;99.90;;;;;;21156625;27;19918;-83
2023/11/24 10:32:52;;;;;;;;;;;8.20;99.90;;;;;;21129317;27;19916;-85
2023/11/24 10:42:53;;;;;;;;;;;8.20;99.90;;;;;;21152571;27;19969;-86
2023/11/24 10:53:14;;;;;;;;;;;8.10;99.90;;;;;;21171037;27;19920;-84
2023/11/24 11:03:16;;;;;;;;;;;8.20;99.90;;;;;;21137832;27;19937;-82
2023/11/24 11:13:17;;;;;;;;;;;8.30;99.90;;;;;;21165354;27;19923;-82
2023/11/24 11:23:23;;;;;;;;;;;8.30;99.90;;;;;;21154099;27;19912;-84
2023/11/24 11:33:24;;;;;;;;;;;8.40;99.90;;;;;;21096890;28;19973;-84
2023/11/24 11:43:25;;;;;;;;;;;8.50;99.90;;;;;;21175001;27;20388;-87
2023/11/24 11:53:28;;;;;;;;;;;8.40;99.90;;;;;;21203932;28;20414;-83
2023/11/24 12:03:30;;;;;;;;;;;8.30;99.90;;;;;;21229000;27;19919;-84
2023/11/24 12:13:31;;;;;;;;;;;9.50;99.90;;;;;;21244754;27;20455;-83
2023/11/24 12:23:32;;;;;;;;;;;10.00;99.90;;;;;;21229126;27;20320;-84
2023/11/24 12:33:33;;;;;;;;;;;10.40;99.90;;;;;;21245219;27;19954;-84
2023/11/24 12:43:34;;;;;;;;;;;9.50;99.90;;;;;;21244183;27;19923;-85
2023/11/24 12:53:34;;;;;;;;;;;9.70;99.90;;;;;;21186358;27;19920;-83
2023/11/24 13:03:35;;;;;;;;;;;9.40;99.90;;;;;;21155564;28;19974;-83
2023/11/24 13:13:36;;;;;;;;;;;9.60;99.90;;;;;;21172348;28;19919;-84
2023/11/24 13:23:37;;;;;;;;;;;9.60;99.90;;;;;;21174249;28;19920;-83
2023/11/24 13:33:38;;;;;;;;;;;8.60;99.90;;;;;;21138284;28;19951;-84
2023/11/24 13:43:40;;;;;;;;;;;8.40;99.90;;;;;;21138410;28;19961;-86
2023/11/24 13:53:40;;;;;;;;;;;8.90;99.90;;;;;;21135854;28;19920;-84
2023/11/24 14:03:42;;;;;;;;;;;8.50;99.90;;;;;;21136473;27;19922;-85
2023/11/24 14:13:45;;;;;;;;;;;8.50;99.90;;;;;;21138253;28;19983;-85
2023/11/24 14:23:45;;;;;;;;;;;8.40;99.90;;;;;;21164860;27;20002;-85
2023/11/24 14:33:47;;;;;;;;;;;8.10;99.90;;;;;;21160940;27;19923;-85
2023/11/24 14:43:48;;;;;;;;;;;7.90;99.90;;;;;;21153843;27;19923;-85
2023/11/24 14:53:52;;;;;;;;;;;7.80;99.90;;;;;;21119426;27;19916;-86
2023/11/24 15:03:53;;;;;;;;;;;7.80;99.90;;;;;;21124618;27;20082;-88
2023/11/24 15:13:54;;;;;;;;;;;7.70;99.90;;;;;;21136482;27;19951;-87
2023/11/24 15:23:54;;;;;;;;;;;5.70;99.90;;;;;;21127439;28;19962;-87
2023/11/24 15:33:59;;;;;;;;;;;5.40;99.90;;;;;;21116157;27;19919;-87
2023/11/24 15:44:06;;;;;;;;;;;5.20;99.90;;;;;;21144562;28;19916;-87
2023/11/24 15:54:07;;;;;;;;;;;5.40;99.90;;;;;;21150635;28;20361;-86
2023/11/24 16:04:11;;;;;;;;;;;5.40;99.90;;;;;;21176551;28;19912;-87
2023/11/24 16:14:12;;;;;;;;;;;5.30;99.90;;;;;;21159898;28;19916;-87
2023/11/24 16:24:13;;;;;;;;;;;5.40;99.90;;;;;;21158166;28;19954;-86
2023/11/24 16:34:18;;;;;;;;;;;5.40;99.90;;;;;;21165330;28;19916;-85
2023/11/24 16:44:19;;;;;;;;;;;5.00;99.90;;;;;;21152290;28;19923;-85
2023/11/24 16:54:19;;;;;;;;;;;4.80;99.90;;;;;;21144223;28;19915;-84
2023/11/24 17:04:20;;;;;;;;;;;4.60;99.90;;;;;;21158572;28;19919;-84
2023/11/24 17:14:22;;;;;;;;;;;4.30;99.90;;;;;;21142930;28;19919;-85
2023/11/24 17:24:23;;;;;;;;;;;4.20;99.90;;;;;;21144602;28;20374;-85
2023/11/24 17:34:23;;;;;;;;;;;3.90;99.90;;;;;;21163516;28;20290;-85
2023/11/24 17:44:24;;;;;;;;;;;4.00;99.90;;;;;;21142823;28;19919;-85
2023/11/24 17:54:25;;;;;;;;;;;4.30;99.90;;;;;;21142353;28;20018;-84
2023/11/24 18:04:26;;;;;;;;;;;4.50;99.90;;;;;;21175266;28;19916;-86
2023/11/24 18:14:27;;;;;;;;;;;4.60;99.90;;;;;;21163395;27;19977;-85
2023/11/24 18:24:28;;;;;;;;;;;4.80;99.90;;;;;;21219460;27;19911;-85
2023/11/24 18:34:28;;;;;;;;;;;4.70;99.90;;;;;;21220511;27;19919;-84
2023/11/24 18:44:29;;;;;;;;;;;4.50;99.90;;;;;;21185642;27;19912;-85
2023/11/24 18:54:29;;;;;;;;;;;4.30;99.90;;;;;;21138071;28;19922;-85
2023/11/24 19:04:31;;;;;;;;;;;4.30;99.90;;;;;;21152268;28;20427;-86
2023/11/24 19:14:34;;;;;;;;;;;4.10;99.90;;;;;;21135625;28;20398;-87
2023/11/24 19:24:34;;;;;;;;;;;3.90;99.90;;;;;;21138545;27;19912;-86
2023/11/24 19:34:35;;;;;;;;;;;3.90;99.90;;;;;;21189905;27;19930;-85
2023/11/24 19:44:39;;;;;;;;;;;3.70;99.90;;;;;;21131791;28;19965;-86
2023/11/24 19:54:41;;;;;;;;;;;3.50;99.90;;;;;;21147819;28;19922;-84
2023/11/24 20:04:41;;;;;;;;;;;3.10;99.90;;;;;;21154505;28;20329;-86
2023/11/24 20:14:43;;;;;;;;;;;2.90;99.90;;;;;;21157597;28;20346;-86
2023/11/24 20:24:44;;;;;;;;;;;2.70;99.90;;;;;;21176694;28;19912;-87
2023/11/24 20:34:45;;;;;;;;;;;2.60;99.90;;;;;;21180389;27;20483;-86
2023/11/24 20:44:47;;;;;;;;;;;2.40;99.90;;;;;;21169317;28;20375;-87
2023/11/24 20:54:49;;;;;;;;;;;2.50;99.90;;;;;;21145771;28;19962;-86
2023/11/24 21:04:50;;;;;;;;;;;2.50;99.90;;;;;;21161763;28;20065;-85
2023/11/24 21:14:51;;;;;;;;;;;2.40;99.90;;;;;;21143187;28;19916;-86
2023/11/24 21:24:55;;;;;;;;;;;2.40;99.90;;;;;;21190018;27;19919;-86
2023/11/24 21:34:56;;;;;;;;;;;2.50;99.90;;;;;;21249927;27;19927;-86
2023/11/24 21:44:57;;;;;;;;;;;2.40;99.90;;;;;;21229778;27;19911;-85
2023/11/24 21:54:57;;;;;;;;;;;2.50;99.90;;;;;;21177651;27;19998;-85
2023/11/24 22:04:58;;;;;;;;;;;2.60;99.90;;;;;;21152133;27;19912;-85
2023/11/24 22:15:02;;;;;;;;;;;2.60;99.90;;;;;;21142127;28;19915;-86
2023/11/24 22:25:06;;;;;;;;;;;2.70;99.90;;;;;;21140546;28;20379;-87
2023/11/24 22:35:07;;;;;;;;;;;2.80;99.90;;;;;;21140581;28;19942;-86
2023/11/24 22:45:07;;;;;;;;;;;2.80;99.90;;;;;;21136464;28;19912;-87
2023/11/24 22:55:09;;;;;;;;;;;2.90;99.90;;;;;;21137766;28;19935;-85
2023/11/24 23:05:09;;;;;;;;;;;3.00;99.90;;;;;;21151408;28;19919;-86
2023/11/24 23:15:11;;;;;;;;;;;3.00;99.90;;;;;;21134212;28;19912;-85
2023/11/24 23:25:11;;;;;;;;;;;3.00;99.90;;;;;;21134222;28;19920;-85
2023/11/24 23:35:12;;;;;;;;;;;2.90;99.90;;;;;;21192845;27;20422;-86
2023/11/24 23:45:13;;;;;;;;;;;2.70;99.90;;;;;;21201459;27;19918;-85
2023/11/24 23:55:14;;;;;;;;;;;2.50;99.90;;;;;;21201812;27;19961;-84
